Time;durP1;ratioP1;P1;durP2;ratioP2;P2;SDS_P1;SDS_P2;PMS_P1;PMS_P2;Temp;Humidity;BMP_temperature;BMP_pressure;BME280_temperature;BME280_humidity;BME280_pressure;Samples;Min_cycle;Max_cycle;Signal;HPM_P1;HPM_P2
2022/09/09 00:01:53;;;;;;;26.30;10.15;;;14.40;99.90;;;;;;5038795;28;20081;-69
2022/09/09 00:04:30;;;;;;;38.63;8.55;;;14.30;99.90;;;;;;5014142;28;20110;-68
2022/09/09 00:07:16;;;;;;;100.00;9.95;;;14.20;99.90;;;;;;5047079;28;20046;-69
2022/09/09 00:09:49;;;;;;;6.63;5.93;;;14.10;99.90;;;;;;5019644;28;20056;-69
2022/09/09 00:12:24;;;;;;;8.10;5.20;;;14.00;99.90;;;;;;5049416;28;20038;-69
2022/09/09 00:15:07;;;;;;;5.15;4.65;;;13.90;99.90;;;;;;5051631;28;20049;-69
2022/09/09 00:18:02;;;;;;;5.43;4.80;;;13.90;99.90;;;;;;5010209;28;20049;-69
2022/09/09 00:20:52;;;;;;;7.82;4.68;;;13.90;99.90;;;;;;5032440;28;20080;-69
2022/09/09 00:23:27;;;;;;;9.50;5.45;;;13.80;99.90;;;;;;5054225;28;20050;-69
2022/09/09 00:26:13;;;;;;;5.43;4.68;;;13.70;99.90;;;;;;5011581;28;20046;-69
2022/09/09 00:28:48;;;;;;;12.13;4.88;;;13.60;99.90;;;;;;5015264;28;20049;-69
2022/09/09 00:31:20;;;;;;;10.70;4.40;;;13.60;99.90;;;;;;5028240;28;20049;-69
2022/09/09 00:33:47;;;;;;;6.57;4.07;;;13.50;99.90;;;;;;5041982;28;20057;-69
2022/09/09 00:36:17;;;;;;;6.57;3.80;;;13.50;99.90;;;;;;5013638;28;20046;-69
2022/09/09 00:38:51;;;;;;;5.07;3.63;;;13.50;99.90;;;;;;5016380;28;20092;-69
2022/09/09 00:41:26;;;;;;;4.00;3.60;;;13.40;99.90;;;;;;5011540;28;20045;-69
2022/09/09 00:44:03;;;;;;;5.40;4.18;;;13.40;99.90;;;;;;5005945;28;20057;-69
2022/09/09 00:46:41;;;;;;;5.22;4.00;;;13.40;99.90;;;;;;5018319;28;20050;-69
2022/09/09 00:49:25;;;;;;;8.20;3.97;;;13.30;99.90;;;;;;5018328;28;20050;-69
2022/09/09 00:52:09;;;;;;;4.88;4.22;;;13.30;99.90;;;;;;5010992;28;20727;-69
2022/09/09 00:55:04;;;;;;;6.68;4.30;;;13.30;99.90;;;;;;5014822;28;20064;-69
2022/09/09 00:57:32;;;;;;;10.63;5.20;;;13.20;99.90;;;;;;5013454;28;20064;-69
2022/09/09 01:00:21;;;;;;;6.22;4.00;;;13.30;99.90;;;;;;5014003;28;20053;-69
2022/09/09 01:02:56;;;;;;;5.05;3.95;;;13.20;99.90;;;;;;5015738;28;20038;-69
2022/09/09 01:05:42;;;;;;;5.60;4.15;;;13.20;99.90;;;;;;5011532;28;20060;-69
2022/09/09 01:08:50;;;;;;;5.13;4.07;;;13.30;99.90;;;;;;5008106;28;20050;-69
2022/09/09 01:11:25;;;;;;;6.60;4.40;;;13.20;99.90;;;;;;5016313;28;20101;-69
2022/09/09 01:14:01;;;;;;;4.90;4.38;;;13.20;99.90;;;;;;5038742;28;20042;-69
2022/09/09 01:16:29;;;;;;;10.15;6.82;;;13.30;99.90;;;;;;5029524;28;20512;-69
2022/09/09 01:18:58;;;;;;;8.35;6.97;;;13.40;99.90;;;;;;5048921;28;20069;-69
2022/09/09 01:21:44;;;;;;;11.15;7.63;;;13.60;99.90;;;;;;5016384;28;20037;-69
2022/09/09 01:24:26;;;;;;;12.57;7.78;;;13.70;99.90;;;;;;5042737;28;20046;-69
2022/09/09 01:26:57;;;;;;;15.07;8.32;;;13.90;99.90;;;;;;5028834;28;20042;-69
2022/09/09 01:29:23;;;;;;;11.55;8.60;;;14.10;99.90;;;;;;5029054;28;20042;-69
2022/09/09 01:31:53;;;;;;;13.57;8.30;;;14.20;99.90;;;;;;5018434;28;20049;-69
2022/09/09 01:34:19;;;;;;;11.82;8.25;;;14.40;99.90;;;;;;5054559;28;20091;-69
2022/09/09 01:36:48;;;;;;;11.77;8.13;;;14.40;99.90;;;;;;5018992;28;20042;-69
2022/09/09 01:39:14;;;;;;;12.30;7.88;;;14.50;99.90;;;;;;5019791;28;20077;-69
2022/09/09 01:41:40;;;;;;;12.75;7.30;;;14.50;99.90;;;;;;5028687;28;20046;-69
2022/09/09 01:44:07;;;;;;;9.07;7.68;;;14.60;99.90;;;;;;5014466;28;20045;-69
2022/09/09 01:46:33;;;;;;;11.82;7.72;;;14.60;99.90;;;;;;5026902;28;20386;-69
2022/09/09 01:49:03;;;;;;;10.45;7.68;;;14.70;99.90;;;;;;5025119;28;20077;-69
2022/09/09 01:51:29;;;;;;;10.90;8.00;;;14.70;99.90;;;;;;5028728;28;20046;-69
2022/09/09 01:53:55;;;;;;;11.80;8.05;;;14.80;99.90;;;;;;5014476;28;20053;-69
2022/09/09 01:56:33;;;;;;;12.25;7.65;;;14.80;99.90;;;;;;5047409;28;20049;-69
2022/09/09 01:59:23;;;;;;;12.65;7.50;;;14.80;99.90;;;;;;5026501;28;20052;-69
2022/09/09 02:02:07;;;;;;;12.57;7.72;;;14.80;99.90;;;;;;5014070;28;20054;-69
2022/09/09 02:04:55;;;;;;;11.15;8.18;;;14.80;99.90;;;;;;5048446;28;20083;-69
2022/09/09 02:07:41;;;;;;;11.32;7.63;;;14.80;99.90;;;;;;5019559;28;20532;-69
2022/09/09 02:10:19;;;;;;;12.30;8.63;;;14.90;99.90;;;;;;5007503;28;20088;-69
2022/09/09 02:12:49;;;;;;;13.80;7.90;;;14.80;99.90;;;;;;5024717;28;20440;-69
2022/09/09 02:15:29;;;;;;;10.27;6.80;;;14.90;99.90;;;;;;5026042;28;20045;-69
2022/09/09 02:17:58;;;;;;;13.98;8.23;;;14.90;99.90;;;;;;5024575;28;20064;-69
2022/09/09 02:20:27;;;;;;;8.37;6.50;;;14.80;99.90;;;;;;5017173;28;20061;-69
2022/09/09 02:22:54;;;;;;;13.23;6.85;;;14.90;99.90;;;;;;5011354;28;20293;-68
2022/09/09 02:25:24;;;;;;;11.18;7.35;;;14.80;99.90;;;;;;5010421;28;20046;-69
2022/09/09 02:27:51;;;;;;;11.32;7.07;;;14.90;99.90;;;;;;5013287;28;20049;-69
2022/09/09 02:30:18;;;;;;;10.30;6.90;;;14.90;99.90;;;;;;5024985;28;20452;-69
2022/09/09 02:32:47;;;;;;;11.75;7.28;;;14.90;99.90;;;;;;5015068;28;20119;-69
2022/09/09 02:35:17;;;;;;;12.15;6.45;;;14.90;99.90;;;;;;5031620;28;20049;-69
2022/09/09 02:37:46;;;;;;;;;;;15.00;99.90;;;;;;5007311;28;20050;-69
2022/09/09 02:40:15;;;;;;;14.45;7.25;;;14.90;99.90;;;;;;5022796;28;19922;-69
2022/09/09 02:42:46;;;;;;;12.15;7.47;;;14.90;99.90;;;;;;5013125;28;20054;-69
2022/09/09 02:45:16;;;;;;;15.77;7.88;;;14.90;99.90;;;;;;5029022;28;20103;-69
2022/09/09 02:47:46;;;;;;;;;;;14.80;99.90;;;;;;5024764;28;20056;-69
2022/09/09 02:50:13;;;;;;;15.05;9.35;;;14.80;99.90;;;;;;5040476;28;19925;-69
2022/09/09 02:52:52;;;;;;;12.35;9.80;;;14.90;99.90;;;;;;5018783;28;20052;-69
2022/09/09 02:55:18;;;;;;;15.97;9.63;;;14.90;99.90;;;;;;5014422;28;20073;-69
2022/09/09 02:57:46;;;;;;;16.38;9.57;;;14.90;99.90;;;;;;5031309;28;20050;-69
2022/09/09 03:00:13;;;;;;;15.43;9.63;;;14.90;99.90;;;;;;5010582;28;20105;-69
2022/09/09 03:02:39;;;;;;;14.65;9.82;;;14.80;99.90;;;;;;5027786;28;20076;-69
2022/09/09 03:05:06;;;;;;;13.18;9.15;;;14.90;99.90;;;;;;4996522;28;20101;-69
2022/09/09 03:07:31;;;;;;;12.63;8.63;;;14.80;99.90;;;;;;5007111;28;20057;-69
2022/09/09 03:09:58;;;;;;;12.80;8.73;;;14.90;99.90;;;;;;5046071;28;20073;-69
2022/09/09 03:12:23;;;;;;;13.40;10.15;;;14.80;99.90;;;;;;5011132;28;20054;-69
2022/09/09 03:14:49;;;;;;;15.73;11.10;;;14.80;99.90;;;;;;5008089;28;20133;-69
2022/09/09 03:17:15;;;;;;;15.23;10.75;;;14.90;99.90;;;;;;5023202;28;20050;-69
2022/09/09 03:19:41;;;;;;;17.73;11.32;;;14.80;99.90;;;;;;5012951;28;20045;-69
2022/09/09 03:22:09;;;;;;;14.23;10.43;;;14.80;99.90;;;;;;5009315;28;20556;-68
2022/09/09 03:24:35;;;;;;;20.15;11.90;;;14.80;99.90;;;;;;5026985;28;20042;-69
2022/09/09 03:27:01;;;;;;;13.90;11.38;;;14.80;99.90;;;;;;5006414;28;20116;-68
2022/09/09 03:29:26;;;;;;;20.25;12.30;;;14.80;99.90;;;;;;5006431;28;20114;-69
2022/09/09 03:31:52;;;;;;;15.68;12.15;;;14.80;99.90;;;;;;5011244;28;20050;-69
2022/09/09 03:34:17;;;;;;;17.98;11.85;;;14.80;99.90;;;;;;5022117;28;20061;-69
2022/09/09 03:36:43;;;;;;;17.40;10.65;;;14.80;99.90;;;;;;5021740;28;20497;-69
2022/09/09 03:39:09;;;;;;;13.65;9.10;;;14.80;99.90;;;;;;5018739;28;20053;-69
2022/09/09 03:41:34;;;;;;;13.80;9.82;;;14.80;99.90;;;;;;5004802;28;20109;-69
2022/09/09 03:44:00;;;;;;;15.45;9.80;;;14.80;99.90;;;;;;5010429;28;20072;-69
2022/09/09 03:46:26;;;;;;;13.13;9.20;;;14.80;99.90;;;;;;5024297;28;20098;-69
2022/09/09 03:48:53;;;;;;;11.45;9.57;;;14.80;99.90;;;;;;5012020;28;20075;-69
2022/09/09 03:51:19;;;;;;;15.00;9.27;;;14.80;99.90;;;;;;5022127;28;20042;-69
2022/09/09 03:53:44;;;;;;;11.95;8.88;;;14.80;99.90;;;;;;4978946;28;20088;-69
2022/09/09 03:56:10;;;;;;;15.50;8.88;;;14.80;99.90;;;;;;5034082;28;20050;-69
2022/09/09 03:58:37;;;;;;;12.05;8.75;;;14.80;99.90;;;;;;5037235;28;20109;-69
2022/09/09 04:01:06;;;;;;;11.60;8.57;;;14.90;99.90;;;;;;5005384;28;20136;-68
2022/09/09 04:03:31;;;;;;;11.48;8.65;;;14.90;99.90;;;;;;4997296;28;20092;-68
2022/09/09 04:05:59;;;;;;;10.00;7.57;;;14.90;99.90;;;;;;5034269;28;20046;-69
2022/09/09 04:08:25;;;;;;;10.82;6.93;;;14.80;99.90;;;;;;5036200;28;20057;-69
2022/09/09 04:10:51;;;;;;;10.25;6.60;;;14.90;99.90;;;;;;5018833;28;20405;-69
2022/09/09 04:13:19;;;;;;;7.88;5.72;;;14.90;99.90;;;;;;5035667;28;20050;-69
2022/09/09 04:15:51;;;;;;;8.82;6.43;;;14.90;99.90;;;;;;5008690;28;20052;-69
2022/09/09 04:18:17;;;;;;;9.32;5.80;;;14.80;99.90;;;;;;5004333;28;20064;-69
2022/09/09 04:20:43;;;;;;;8.75;5.38;;;14.80;99.90;;;;;;5026847;28;20073;-68
2022/09/09 04:23:09;;;;;;;7.43;5.63;;;14.80;99.90;;;;;;5016519;28;20080;-68
2022/09/09 04:25:34;;;;;;;11.50;6.13;;;14.80;99.90;;;;;;5026190;28;20052;-68
2022/09/09 04:28:00;;;;;;;11.13;5.57;;;14.80;99.90;;;;;;5001828;28;20133;-69
2022/09/09 04:30:27;;;;;;;7.75;6.07;;;14.80;99.90;;;;;;5024139;28;20414;-70
2022/09/09 04:32:53;;;;;;;9.02;5.97;;;14.80;99.90;;;;;;4990222;28;20069;-70
2022/09/09 04:35:19;;;;;;;7.95;6.47;;;14.80;99.90;;;;;;5003622;28;20080;-70
2022/09/09 04:37:46;;;;;;;10.10;6.97;;;14.80;99.90;;;;;;5002895;28;20401;-70
2022/09/09 04:40:11;;;;;;;12.95;7.72;;;14.80;99.90;;;;;;5000742;28;20050;-70
2022/09/09 04:42:39;;;;;;;9.93;7.32;;;14.80;99.90;;;;;;4990859;28;20117;-70
2022/09/09 04:45:06;;;;;;;10.07;8.02;;;14.80;99.90;;;;;;4971455;28;20516;-70
2022/09/09 04:47:34;;;;;;;10.23;7.72;;;14.80;99.90;;;;;;5016265;28;20074;-70
2022/09/09 04:50:00;;;;;;;12.07;8.13;;;14.80;99.90;;;;;;4979806;28;20639;-70
2022/09/09 04:52:26;;;;;;;12.38;8.15;;;14.80;99.90;;;;;;4983008;28;20085;-70
2022/09/09 04:54:53;;;;;;;13.38;7.90;;;14.80;99.90;;;;;;4970280;28;20070;-68
2022/09/09 04:57:19;;;;;;;13.20;8.32;;;14.80;99.90;;;;;;4984115;28;20139;-68
2022/09/09 04:59:45;;;;;;;9.45;6.63;;;14.80;99.90;;;;;;4976353;28;20050;-68
2022/09/09 05:02:12;;;;;;;10.98;7.57;;;14.80;99.90;;;;;;4998686;28;20172;-68
2022/09/09 05:04:37;;;;;;;9.52;7.65;;;14.80;99.90;;;;;;4994753;28;20050;-68
2022/09/09 05:07:03;;;;;;;10.18;8.18;;;14.80;99.90;;;;;;5005097;28;20078;-68
2022/09/09 05:09:29;;;;;;;13.95;8.63;;;14.80;99.90;;;;;;4983245;28;20049;-68
2022/09/09 05:11:55;;;;;;;12.02;8.70;;;14.80;99.90;;;;;;4992691;28;20039;-68
2022/09/09 05:14:22;;;;;;;11.40;8.40;;;14.80;99.90;;;;;;4971245;28;20050;-68
2022/09/09 05:16:49;;;;;;;10.38;7.88;;;14.80;99.90;;;;;;4992411;28;20109;-68
2022/09/09 05:19:15;;;;;;;12.32;8.05;;;14.80;99.90;;;;;;4983847;28;20461;-68
2022/09/09 05:21:41;;;;;;;11.68;8.43;;;14.80;99.90;;;;;;5011045;28;20039;-68
2022/09/09 05:24:07;;;;;;;11.05;8.93;;;14.80;99.90;;;;;;4997064;28;20054;-68
2022/09/09 05:26:33;;;;;;;9.57;7.85;;;14.80;99.90;;;;;;4985495;28;20078;-68
2022/09/09 05:29:00;;;;;;;11.40;8.07;;;14.80;99.90;;;;;;4977554;28;20495;-68
2022/09/09 05:31:27;;;;;;;11.55;8.10;;;14.80;99.90;;;;;;4979598;28;20065;-68
2022/09/09 05:33:53;;;;;;;11.63;7.72;;;14.80;99.90;;;;;;5003943;28;20038;-68
2022/09/09 05:36:21;;;;;;;12.10;8.05;;;14.80;99.90;;;;;;5009334;28;20056;-68
2022/09/09 05:38:47;;;;;;;12.27;8.10;;;14.80;99.90;;;;;;5011069;28;20068;-68
2022/09/09 05:41:17;;;;;;;10.93;7.93;;;14.80;99.90;;;;;;5027852;28;20098;-68
2022/09/09 05:43:44;;;;;;;10.68;7.78;;;14.90;99.90;;;;;;5006949;28;20046;-68
2022/09/09 05:46:27;;;;;;;9.43;6.95;;;14.90;99.90;;;;;;5014457;28;20160;-68
2022/09/09 05:48:53;;;;;;;9.13;7.47;;;14.90;99.90;;;;;;5029000;28;20049;-68
2022/09/09 05:51:21;;;;;;;9.98;7.15;;;14.90;99.90;;;;;;4998194;28;20061;-68
2022/09/09 05:53:48;;;;;;;8.55;7.07;;;14.90;99.90;;;;;;4995397;28;20382;-68
2022/09/09 05:56:17;;;;;;;11.27;7.18;;;14.90;99.90;;;;;;5014284;28;20476;-68
2022/09/09 05:58:44;;;;;;;8.73;7.53;;;14.90;99.90;;;;;;5018049;28;20137;-68
2022/09/09 06:01:15;;;;;;;10.38;7.97;;;14.90;99.90;;;;;;5025561;28;20053;-68
2022/09/09 06:03:43;;;;;;;9.65;8.45;;;14.90;99.90;;;;;;5011550;28;20034;-69
2022/09/09 06:06:12;;;;;;;8.27;7.03;;;15.00;99.90;;;;;;5025855;28;20081;-69
2022/09/09 06:08:40;;;;;;;8.40;6.20;;;15.00;99.90;;;;;;4998172;28;20062;-68
2022/09/09 06:11:10;;;;;;;9.63;7.00;;;15.00;99.90;;;;;;5015541;28;20057;-68
2022/09/09 06:13:38;;;;;;;8.32;6.38;;;15.00;99.90;;;;;;5012361;28;20045;-68
2022/09/09 06:16:05;;;;;;;10.32;7.47;;;15.00;99.90;;;;;;5021294;28;20068;-69
2022/09/09 06:18:30;;;;;;;11.00;7.78;;;15.00;99.90;;;;;;4990274;28;20039;-69
2022/09/09 06:20:58;;;;;;;9.27;6.40;;;15.10;99.90;;;;;;5023766;28;20079;-69
2022/09/09 06:23:25;;;;;;;9.00;7.13;;;15.10;99.90;;;;;;5005783;28;20072;-69
2022/09/09 06:25:51;;;;;;;8.90;6.32;;;15.20;99.90;;;;;;4997542;28;20064;-69
2022/09/09 06:28:17;;;;;;;7.85;5.82;;;15.20;99.90;;;;;;4994721;28;20110;-69
2022/09/09 06:30:44;;;;;;;9.48;6.18;;;15.20;99.90;;;;;;4999929;28;20058;-68
2022/09/09 06:33:10;;;;;;;8.13;6.38;;;15.20;99.90;;;;;;4997819;28;20046;-71
2022/09/09 06:35:36;;;;;;;10.27;6.05;;;15.30;99.90;;;;;;5003083;28;20053;-71
2022/09/09 06:38:02;;;;;;;9.73;5.38;;;15.30;99.90;;;;;;5007350;28;20056;-72
2022/09/09 06:40:27;;;;;;;9.50;6.50;;;15.40;99.90;;;;;;4999627;28;20057;-70
2022/09/09 06:42:53;;;;;;;10.35;6.15;;;15.40;99.90;;;;;;5013332;28;20042;-71
2022/09/09 06:45:19;;;;;;;8.05;6.30;;;15.40;99.90;;;;;;5028949;28;20061;-71
2022/09/09 06:47:45;;;;;;;8.98;6.13;;;15.50;99.90;;;;;;5031401;28;20469;-70
2022/09/09 06:50:10;;;;;;;8.10;5.95;;;15.50;99.90;;;;;;4994765;28;20049;-70
2022/09/09 06:52:36;;;;;;;10.60;6.38;;;15.50;99.90;;;;;;5026018;28;20076;-71
2022/09/09 06:55:03;;;;;;;12.15;6.00;;;15.50;99.90;;;;;;5017243;28;20061;-70
2022/09/09 06:57:29;;;;;;;8.25;5.60;;;15.50;99.90;;;;;;5026696;28;20053;-70
2022/09/09 06:59:55;;;;;;;9.15;6.13;;;15.50;99.90;;;;;;5008128;28;20045;-71
2022/09/09 07:02:21;;;;;;;9.40;5.80;;;15.60;99.90;;;;;;5013901;28;20180;-71
2022/09/09 07:04:47;;;;;;;8.60;6.13;;;15.60;99.90;;;;;;4994219;28;20089;-72
2022/09/09 07:07:15;;;;;;;11.43;5.72;;;15.60;99.90;;;;;;5013113;28;20049;-71
2022/09/09 07:09:40;;;;;;;7.72;5.88;;;15.70;99.90;;;;;;4989504;28;20049;-71
2022/09/09 07:12:06;;;;;;;10.45;6.05;;;15.70;99.90;;;;;;5014562;28;20446;-71
2022/09/09 07:14:34;;;;;;;10.52;5.65;;;15.70;99.90;;;;;;5016094;28;20038;-70
2022/09/09 07:17:00;;;;;;;9.98;6.32;;;15.70;99.90;;;;;;5037494;28;20064;-71
2022/09/09 07:19:25;;;;;;;7.15;5.75;;;15.80;99.90;;;;;;4989007;28;20111;-71
2022/09/09 07:21:51;;;;;;;8.57;5.88;;;15.80;99.90;;;;;;5022104;28;20045;-71
2022/09/09 07:24:17;;;;;;;9.88;5.82;;;15.80;99.90;;;;;;5016134;28;20053;-71
2022/09/09 07:26:43;;;;;;;8.70;5.85;;;15.80;99.90;;;;;;5004796;28;20053;-71
2022/09/09 07:29:13;;;;;;;11.52;6.60;;;15.90;99.90;;;;;;4998151;28;20057;-70
2022/09/09 07:31:39;;;;;;;8.65;6.05;;;15.90;99.90;;;;;;5006857;28;20045;-72
2022/09/09 07:34:06;;;;;;;10.65;5.82;;;15.90;99.90;;;;;;4998017;28;20050;-70
2022/09/09 07:36:38;;;;;;;9.13;6.32;;;16.00;99.90;;;;;;5024619;28;20791;-70
2022/09/09 07:39:07;;;;;;;10.60;6.72;;;16.00;99.90;;;;;;5028688;28;20053;-71
2022/09/09 07:41:34;;;;;;;10.20;6.13;;;16.10;99.90;;;;;;5034593;28;20079;-71
2022/09/09 07:44:06;;;;;;;9.20;5.85;;;16.10;99.90;;;;;;5008982;28;20113;-70
2022/09/09 07:46:32;;;;;;;9.02;6.05;;;16.20;99.90;;;;;;5023829;28;20060;-70
2022/09/09 07:48:57;;;;;;;8.80;6.03;;;16.20;99.90;;;;;;5004083;28;20054;-71
2022/09/09 07:51:29;;;;;;;8.73;5.93;;;16.30;99.90;;;;;;5010767;28;20057;-71
2022/09/09 07:53:57;;;;;;;10.35;5.65;;;16.40;99.90;;;;;;5013038;28;20100;-71
2022/09/09 07:56:24;;;;;;;9.00;6.13;;;16.50;99.90;;;;;;5021671;28;20057;-70
2022/09/09 07:58:52;;;;;;;9.45;5.53;;;16.60;99.90;;;;;;5007352;28;20060;-70
2022/09/09 08:01:21;;;;;;;8.55;5.63;;;16.60;99.90;;;;;;5008645;28;20046;-71
2022/09/09 08:03:59;;;;;;;8.30;5.23;;;16.70;99.90;;;;;;5008310;28;20049;-70
2022/09/09 08:06:26;;;;;;;8.50;5.53;;;16.70;99.90;;;;;;5009558;28;20627;-71
2022/09/09 08:08:54;;;;;;;10.02;6.13;;;16.70;99.90;;;;;;5022561;28;20058;-71
2022/09/09 08:11:22;;;;;;;9.93;5.95;;;16.80;99.90;;;;;;5006706;28;20785;-71
2022/09/09 08:13:50;;;;;;;9.10;5.30;;;16.90;99.90;;;;;;5010921;28;20457;-70
2022/09/09 08:16:18;;;;;;;9.48;5.78;;;17.00;99.90;;;;;;5016705;28;20049;-70
2022/09/09 08:18:44;;;;;;;9.82;5.30;;;17.10;99.90;;;;;;5025903;28;20054;-71
2022/09/09 08:21:17;;;;;;;10.50;5.57;;;17.20;99.90;;;;;;5015124;28;20511;-70
2022/09/09 08:23:45;;;;;;;8.77;5.60;;;17.30;99.90;;;;;;5025890;28;20106;-70
2022/09/09 08:26:27;;;;;;;8.15;5.07;;;17.30;99.90;;;;;;5010928;28;20524;-70
2022/09/09 08:28:56;;;;;;;9.45;5.43;;;17.40;99.90;;;;;;5004112;28;20125;-70
2022/09/09 08:31:30;;;;;;;8.77;5.00;;;17.50;99.90;;;;;;5012118;28;20665;-70
2022/09/09 08:33:59;;;;;;;10.63;6.15;;;17.50;99.90;;;;;;5006880;28;20104;-71
2022/09/09 08:36:27;;;;;;;11.50;5.45;;;17.60;99.90;;;;;;5009842;28;20061;-70
2022/09/09 08:38:55;;;;;;;8.32;4.78;;;17.60;99.90;;;;;;5001528;28;20046;-70
2022/09/09 08:41:48;;;;;;;9.68;4.90;;;17.70;99.90;;;;;;5023299;28;20143;-70
2022/09/09 08:44:35;;;;;;;12.25;6.18;;;17.70;99.90;;;;;;5013027;28;20065;-70
2022/09/09 08:47:29;;;;;;;6.65;4.75;;;17.70;99.90;;;;;;5042302;28;20969;-71
2022/09/09 08:50:24;;;;;;;10.30;5.85;;;17.80;99.90;;;;;;5036663;28;20045;-70
2022/09/09 08:53:08;;;;;;;8.57;5.30;;;17.90;99.90;;;;;;4968830;28;20051;-70
2022/09/09 08:55:51;;;;;;;8.23;5.10;;;17.90;99.90;;;;;;4996653;28;20564;-71
2022/09/09 08:58:29;;;;;;;11.43;5.13;;;17.90;99.90;;;;;;5039858;28;20081;-71
2022/09/09 09:01:09;;;;;;;9.30;5.40;;;18.10;99.90;;;;;;5000455;28;20560;-70
2022/09/09 09:04:02;;;;;;;10.45;5.10;;;18.20;99.90;;;;;;5031185;28;20255;-70
2022/09/09 09:06:31;;;;;;;9.10;4.72;;;18.30;99.90;;;;;;5016255;28;20081;-70
2022/09/09 09:09:14;;;;;;;11.43;5.07;;;18.30;99.90;;;;;;4999165;28;20413;-71
2022/09/09 09:12:02;;;;;;;12.35;4.57;;;18.40;99.90;;;;;;5005418;28;20128;-71
2022/09/09 09:14:30;;;;;;;10.65;4.93;;;18.40;99.90;;;;;;4999019;28;20135;-70
2022/09/09 09:17:15;;;;;;;10.13;4.43;;;18.40;99.90;;;;;;5020882;28;20148;-70
2022/09/09 09:19:43;;;;;;;7.85;4.57;;;18.40;99.90;;;;;;5041379;28;20049;-70
2022/09/09 09:22:32;;;;;;;8.88;4.30;;;18.40;99.90;;;;;;5021900;28;20064;-70
2022/09/09 09:25:11;;;;;;;10.43;4.85;;;18.40;99.90;;;;;;5010635;28;20057;-70
2022/09/09 09:27:43;;;;;;;9.38;5.55;;;18.50;99.90;;;;;;4982457;28;20060;-70
2022/09/09 09:30:19;;;;;;;10.52;4.90;;;18.50;99.90;;;;;;5030266;28;20053;-71
2022/09/09 09:33:14;;;;;;;9.18;4.50;;;18.40;99.90;;;;;;5008715;28;20142;-70
2022/09/09 09:35:40;;;;;;;8.55;3.95;;;18.40;99.90;;;;;;5022402;28;20053;-70
2022/09/09 09:38:19;;;;;;;12.00;4.32;;;18.40;99.90;;;;;;5006958;28;20038;-70
2022/09/09 09:40:57;;;;;;;7.77;4.30;;;18.40;99.90;;;;;;5000575;28;20069;-70
2022/09/09 09:43:29;;;;;;;10.13;3.90;;;18.50;99.90;;;;;;5013031;28;20293;-71
2022/09/09 09:45:57;;;;;;;11.35;3.53;;;18.70;99.90;;;;;;4996888;28;20144;-70
2022/09/09 09:48:24;;;;;;;12.98;3.67;;;18.70;99.90;;;;;;5025791;28;20394;-70
2022/09/09 09:51:00;;;;;;;7.20;3.38;;;18.80;99.90;;;;;;5031810;28;20072;-70
2022/09/09 09:53:29;;;;;;;9.77;3.90;;;18.90;99.90;;;;;;5009877;28;20269;-70
2022/09/09 09:56:10;;;;;;;12.00;3.53;;;19.00;99.90;;;;;;5012987;28;20053;-70
2022/09/09 09:58:44;;;;;;;8.48;3.35;;;19.00;99.90;;;;;;5010369;28;20046;-71
2022/09/09 10:01:27;;;;;;;11.20;3.88;;;18.90;99.90;;;;;;5022514;28;20161;-71
2022/09/09 10:04:19;;;;;;;9.85;3.78;;;18.90;99.90;;;;;;5005615;28;20046;-71
2022/09/09 10:06:46;;;;;;;9.68;3.13;;;18.80;99.90;;;;;;5019095;28;20553;-71
2022/09/09 10:09:25;;;;;;;8.55;3.67;;;18.90;99.90;;;;;;5025096;28;20741;-70
2022/09/09 10:12:00;;;;;;;9.38;2.97;;;19.00;99.90;;;;;;5006954;28;20053;-70
2022/09/09 10:14:39;;;;;;;11.77;3.15;;;19.00;99.90;;;;;;5018550;28;20192;-71
2022/09/09 10:17:37;;;;;;;9.63;2.63;;;19.10;99.90;;;;;;5023855;28;20049;-70
2022/09/09 10:20:47;;;;;;;8.20;2.97;;;19.20;99.90;;;;;;4984169;28;20050;-71
2022/09/09 10:23:43;;;;;;;6.38;2.60;;;19.20;99.90;;;;;;4911022;29;20059;-70
2022/09/09 10:26:36;;;;;;;7.60;2.60;;;19.20;99.90;;;;;;4926776;29;20111;-70
2022/09/09 10:29:21;;;;;;;5.90;2.63;;;19.30;99.90;;;;;;4934451;29;20536;-70
2022/09/09 10:32:04;;;;;;;9.05;2.38;;;19.20;99.90;;;;;;4922465;29;20083;-71
2022/09/09 10:34:59;;;;;;;9.68;2.50;;;19.10;99.90;;;;;;4936240;29;20134;-69
2022/09/09 10:38:00;;;;;;;7.15;2.22;;;19.20;99.90;;;;;;4907688;29;20067;-70
2022/09/09 10:40:38;;;;;;;9.73;1.95;;;19.20;99.90;;;;;;4923235;29;20160;-71
2022/09/09 10:43:23;;;;;;;7.75;2.90;;;19.30;99.90;;;;;;4930077;29;20220;-69
2022/09/09 10:46:28;;;;;;;5.88;2.28;;;19.40;99.90;;;;;;4924136;29;20056;-69
2022/09/09 10:48:56;;;;;;;10.32;2.97;;;19.60;99.90;;;;;;4922010;29;20044;-70
2022/09/09 10:51:34;;;;;;;11.32;3.20;;;19.70;99.90;;;;;;4911447;29;20118;-70
2022/09/09 10:54:21;;;;;;;8.52;2.75;;;19.80;99.90;;;;;;4896342;29;20055;-70
2022/09/09 10:56:56;;;;;;;10.60;2.97;;;19.90;99.90;;;;;;4956530;28;20058;-70
2022/09/09 10:59:27;;;;;;;8.15;2.50;;;19.70;99.90;;;;;;5005775;28;20568;-70
2022/09/09 11:02:08;;;;;;;11.30;2.92;;;19.60;99.90;;;;;;5032835;28;20515;-70
2022/09/09 11:04:48;;;;;;;6.95;2.20;;;19.60;99.90;;;;;;4997172;28;20061;-70
2022/09/09 11:07:30;;;;;;;6.90;2.55;;;19.60;99.90;;;;;;5026404;28;20049;-70
2022/09/09 11:10:06;;;;;;;9.75;2.35;;;19.60;99.90;;;;;;5034654;28;20046;-71
2022/09/09 11:12:37;;;;;;;8.32;2.40;;;19.60;99.90;;;;;;5038406;28;20041;-70
2022/09/09 11:15:09;;;;;;;9.07;2.47;;;19.60;99.90;;;;;;5043356;28;20091;-70
2022/09/09 11:17:50;;;;;;;7.68;2.25;;;19.60;99.90;;;;;;5011014;28;20056;-70
2022/09/09 11:20:16;;;;;;;10.07;2.80;;;19.60;99.90;;;;;;5004759;28;20057;-70
2022/09/09 11:22:53;;;;;;;8.95;2.30;;;19.60;99.90;;;;;;5033077;28;20057;-70
2022/09/09 11:25:42;;;;;;;7.78;2.30;;;19.60;99.90;;;;;;5045315;28;20064;-70
2022/09/09 11:28:27;;;;;;;7.18;2.30;;;19.80;99.90;;;;;;5005351;28;20108;-70
2022/09/09 11:31:04;;;;;;;7.15;2.28;;;19.90;99.90;;;;;;5026286;28;20457;-69
2022/09/09 11:34:03;;;;;;;7.70;2.08;;;19.90;99.90;;;;;;4995071;28;20058;-71
2022/09/09 11:37:04;;;;;;;7.25;2.47;;;20.00;99.90;;;;;;4968523;28;20046;-70
2022/09/09 11:39:30;;;;;;;4.93;1.67;;;20.20;99.90;;;;;;4989734;28;20294;-71
2022/09/09 11:42:14;;;;;;;6.55;2.03;;;20.20;99.90;;;;;;5003193;28;20342;-69
2022/09/09 11:44:41;;;;;;;7.43;2.42;;;20.20;99.90;;;;;;4987491;28;20110;-70
2022/09/09 11:47:30;;;;;;;6.10;1.63;;;20.40;99.90;;;;;;4965674;28;20077;-69
2022/09/09 11:50:15;;;;;;;9.35;1.95;;;20.60;99.90;;;;;;5004906;28;20042;-70
2022/09/09 11:52:45;;;;;;;7.07;2.17;;;20.60;99.90;;;;;;4988864;28;20500;-70
2022/09/09 11:55:32;;;;;;;5.35;1.88;;;20.70;99.90;;;;;;4984029;28;20070;-71
2022/09/09 11:58:05;;;;;;;7.82;1.95;;;20.70;99.90;;;;;;4991722;28;20055;-69
2022/09/09 12:01:00;;;;;;;5.55;1.90;;;20.60;99.90;;;;;;4980799;28;20058;-70
2022/09/09 12:03:46;;;;;;;7.65;1.80;;;20.70;99.90;;;;;;4963070;28;20149;-70
2022/09/09 12:06:41;;;;;;;5.88;1.80;;;20.80;99.90;;;;;;4981674;28;20045;-70
2022/09/09 12:09:14;;;;;;;8.63;2.38;;;20.70;99.90;;;;;;4993481;28;20062;-70
2022/09/09 12:11:40;;;;;;;8.23;1.90;;;20.80;99.90;;;;;;4979080;28;20050;-70
2022/09/09 12:14:21;;;;;;;5.63;1.67;;;20.80;99.90;;;;;;4991174;28;20039;-70
2022/09/09 12:16:46;;;;;;;5.78;1.70;;;20.70;99.90;;;;;;4975298;28;20096;-70
2022/09/09 12:19:19;;;;;;;7.22;2.60;;;20.80;99.90;;;;;;5000024;28;20047;-70
2022/09/09 12:22:00;;;;;;;6.22;1.55;;;21.00;99.90;;;;;;4988590;28;20592;-70
2022/09/09 12:24:38;;;;;;;6.22;1.80;;;21.10;99.90;;;;;;4989527;28;20058;-69
2022/09/09 12:27:41;;;;;;;8.20;2.05;;;21.20;99.90;;;;;;4982595;28;20186;-69
2022/09/09 12:30:17;;;;;;;6.25;1.70;;;21.40;99.90;;;;;;4980126;28;20061;-69
2022/09/09 12:32:44;;;;;;;4.28;1.70;;;21.40;99.90;;;;;;4985382;28;20050;-69
2022/09/09 12:35:27;;;;;;;5.45;1.70;;;21.40;99.90;;;;;;4980350;28;20054;-70
2022/09/09 12:38:02;;;;;;;7.22;1.80;;;21.40;99.90;;;;;;5007267;28;20438;-70
2022/09/09 12:40:34;;;;;;;7.82;1.90;;;21.60;99.90;;;;;;4988593;28;20061;-69
2022/09/09 12:43:02;;;;;;;7.45;2.22;;;21.70;99.90;;;;;;4991108;28;20049;-70
2022/09/09 12:45:32;;;;;;;9.82;1.52;;;21.80;99.90;;;;;;5001624;28;20076;-69
2022/09/09 12:48:17;;;;;;;4.88;1.52;;;21.80;99.90;;;;;;4996121;28;20057;-70
2022/09/09 12:50:50;;;;;;;6.40;1.55;;;21.60;99.90;;;;;;4977433;28;20085;-69
2022/09/09 12:53:29;;;;;;;5.90;1.40;;;21.70;99.90;;;;;;4978012;28;20061;-69
2022/09/09 12:56:07;;;;;;;4.93;1.52;;;21.90;99.90;;;;;;4973162;28;20116;-70
2022/09/09 12:58:35;;;;;;;9.57;2.05;;;22.10;99.90;;;;;;5000521;28;20097;-69
2022/09/09 13:01:04;;;;;;;4.78;1.45;;;22.20;99.90;;;;;;4980135;28;20046;-69
2022/09/09 13:03:31;;;;;;;5.22;1.40;;;22.00;99.90;;;;;;5020229;28;20387;-70
2022/09/09 13:06:09;;;;;;;3.40;1.20;;;21.80;99.90;;;;;;4980517;28;20039;-70
2022/09/09 13:08:35;;;;;;;5.50;1.50;;;21.70;99.90;;;;;;5007960;28;20058;-70
2022/09/09 13:11:06;;;;;;;4.95;1.60;;;21.60;99.90;;;;;;4979253;28;20289;-71
2022/09/09 13:13:37;;;;;;;7.60;1.55;;;21.70;99.90;;;;;;4996884;28;20152;-69